createdAt,value
2022-11-05T00:03:12.411Z,11.49
2022-11-05T00:13:37.519Z,11.33
2022-11-05T00:24:02.299Z,10.98
2022-11-05T00:34:08.624Z,10.65
2022-11-05T00:44:33.663Z,10.54
2022-11-05T00:54:39.951Z,10.30
2022-11-05T01:04:46.662Z,10.12
2022-11-05T01:14:52.977Z,9.96
2022-11-05T01:24:59.245Z,10.00
2022-11-05T01:35:11.404Z,9.91
2022-11-05T01:45:18.944Z,9.73
2022-11-05T01:55:28.324Z,9.77
2022-11-05T02:05:35.353Z,9.87
2022-11-05T02:15:50.250Z,9.81
2022-11-05T02:26:29.670Z,9.80
2022-11-05T02:37:01.055Z,9.84
2022-11-05T02:47:18.351Z,9.66
2022-11-05T02:57:24.907Z,9.77
2022-11-05T03:07:37.219Z,9.83
2022-11-05T03:18:15.144Z,9.94
2022-11-05T03:28:23.804Z,9.94
2022-11-05T03:38:34.409Z,9.86
2022-11-05T03:48:44.450Z,9.83
2022-11-05T03:58:54.748Z,9.73
2022-11-05T04:09:22.428Z,9.63
2022-11-05T04:19:47.277Z,9.70
2022-11-05T04:30:11.984Z,9.70
2022-11-05T04:40:18.260Z,9.67
2022-11-05T04:50:25.052Z,9.60
2022-11-05T05:00:31.463Z,9.63
2022-11-05T05:10:38.039Z,9.57
2022-11-05T05:21:03.077Z,9.47
2022-11-05T05:31:09.432Z,9.60
2022-11-05T05:41:15.851Z,9.50
2022-11-05T05:51:22.112Z,9.43
2022-11-05T06:01:28.435Z,9.36
2022-11-05T06:11:35.209Z,9.27
2022-11-05T06:21:41.520Z,9.21
2022-11-05T06:31:47.841Z,9.25
2022-11-05T06:42:17.042Z,9.34
2022-11-05T06:52:21.020Z,9.25
2022-11-05T07:02:27.365Z,9.31
2022-11-05T07:12:33.872Z,9.35
2022-11-05T07:22:40.188Z,9.51
2022-11-05T07:32:46.453Z,9.54
2022-11-05T07:42:56.659Z,9.56
2022-11-05T07:53:09.307Z,9.68
2022-11-05T08:03:18.252Z,9.67
2022-11-05T08:13:24.856Z,9.68
2022-11-05T08:23:31.984Z,9.59
2022-11-05T08:33:38.509Z,9.75
2022-11-05T08:43:44.819Z,9.61
2022-11-05T08:53:51.060Z,9.71
2022-11-05T09:03:57.339Z,9.74
2022-11-05T09:14:03.874Z,9.83
2022-11-05T09:24:10.148Z,9.97
2022-11-05T09:34:16.429Z,10.08
2022-11-05T09:44:39.664Z,10.12
2022-11-05T09:54:47.203Z,10.42
2022-11-05T10:04:57.217Z,10.33
2022-11-05T10:15:17.456Z,10.32
2022-11-05T10:25:26.364Z,10.47
2022-11-05T10:35:34.897Z,10.43
2022-11-05T10:45:41.112Z,10.55
2022-11-05T10:55:50.146Z,10.43
2022-11-05T11:06:12.960Z,10.43
2022-11-05T11:16:24.912Z,10.41
2022-11-05T11:26:34.870Z,10.48
2022-11-05T11:36:45.752Z,10.50
2022-11-05T11:46:53.612Z,10.47
2022-11-05T11:56:59.987Z,10.68
2022-11-05T12:07:21.583Z,10.82
2022-11-05T12:17:49.460Z,10.81
2022-11-05T12:28:29.803Z,10.84
2022-11-05T12:38:49.432Z,10.88
2022-11-05T12:49:01.630Z,10.90
2022-11-05T12:59:17.359Z,10.92
2022-11-05T13:09:31.535Z,10.90
2022-11-05T13:19:42.488Z,10.92
2022-11-05T13:29:54.649Z,10.92
2022-11-05T13:40:05.041Z,10.73
2022-11-05T13:50:40.079Z,10.56
2022-11-05T14:01:18.799Z,10.57
2022-11-05T14:11:36.764Z,10.45
2022-11-05T14:21:54.184Z,10.53
2022-11-05T14:32:09.749Z,10.48
2022-11-05T14:42:16.067Z,10.47
2022-11-05T14:52:22.569Z,10.42
2022-11-05T15:02:34.886Z,10.33
2022-11-05T15:12:48.032Z,10.36
2022-11-05T15:22:59.343Z,10.40
2022-11-05T15:33:10.854Z,10.27
2022-11-05T15:43:18.831Z,10.20
2022-11-05T15:54:02.266Z,10.26
2022-11-05T16:04:16.199Z,10.21
2022-11-05T16:14:22.507Z,10.12
2022-11-05T16:24:29.537Z,9.93
2022-11-05T16:34:40.770Z,9.99
2022-11-05T16:44:47.124Z,9.97
2022-11-05T16:54:53.392Z,9.88
2022-11-05T17:04:59.747Z,9.89
2022-11-05T17:15:25.197Z,9.93
2022-11-05T17:25:31.854Z,9.91
2022-11-05T17:35:42.139Z,9.85
2022-11-05T17:45:59.975Z,9.86
2022-11-05T17:56:14.638Z,9.76
2022-11-05T18:06:23.344Z,9.85
2022-11-05T18:16:29.671Z,9.87
2022-11-05T18:26:36.291Z,9.89
2022-11-05T18:36:44.730Z,9.85
2022-11-05T18:46:58.233Z,9.82
2022-11-05T18:57:04.914Z,9.90
2022-11-05T19:07:11.223Z,9.83
2022-11-05T19:17:17.515Z,9.97
2022-11-05T19:27:24.433Z,9.79
2022-11-05T19:37:30.711Z,9.90
2022-11-05T19:47:37.031Z,9.89
2022-11-05T19:57:43.297Z,9.75
2022-11-05T20:07:53.121Z,9.75
2022-11-05T20:18:00.043Z,9.81
2022-11-05T20:28:06.809Z,9.71
2022-11-05T20:38:13.294Z,9.70
2022-11-05T20:48:19.979Z,9.67
2022-11-05T20:58:26.339Z,9.60
2022-11-05T21:08:33.459Z,9.59
2022-11-05T21:18:40.568Z,9.42
2022-11-05T21:28:46.864Z,9.44
2022-11-05T21:38:53.178Z,9.35
2022-11-05T21:48:59.446Z,9.31
2022-11-05T21:59:24.900Z,9.28
2022-11-05T22:09:31.435Z,9.22
2022-11-05T22:19:38.104Z,9.09
2022-11-05T22:29:44.645Z,8.98
2022-11-05T22:39:50.899Z,8.91
2022-11-05T22:49:57.192Z,8.75
2022-11-05T23:00:03.533Z,8.61
2022-11-05T23:10:28.885Z,8.55
2022-11-05T23:20:52.748Z,8.55
2022-11-05T23:31:17.566Z,8.58
2022-11-05T23:41:42.431Z,8.52
2022-11-05T23:51:48.698Z,8.53
